sensor_id;sensor_type;location;lat;lon;timestamp;temperature;humidity
16200;DHT22;8207;52.494;4.654;2023-02-21T00:00:47;9.50;99.90
16200;DHT22;8207;52.494;4.654;2023-02-21T00:03:32;9.40;99.90
16200;DHT22;8207;52.494;4.654;2023-02-21T00:06:17;9.40;99.90
16200;DHT22;8207;52.494;4.654;2023-02-21T00:09:02;9.40;99.90
16200;DHT22;8207;52.494;4.654;2023-02-21T00:11:47;9.40;99.90
16200;DHT22;8207;52.494;4.654;2023-02-21T00:14:31;9.40;99.90
16200;DHT22;8207;52.494;4.654;2023-02-21T00:17:15;9.40;99.90
16200;DHT22;8207;52.494;4.654;2023-02-21T00:20:00;9.30;99.90
16200;DHT22;8207;52.494;4.654;2023-02-21T00:22:44;9.40;99.90
16200;DHT22;8207;52.494;4.654;2023-02-21T00:25:30;9.40;99.90
16200;DHT22;8207;52.494;4.654;2023-02-21T00:28:14;9.40;99.90
16200;DHT22;8207;52.494;4.654;2023-02-21T00:30:58;9.40;99.90
16200;DHT22;8207;52.494;4.654;2023-02-21T00:33:43;9.40;99.90
16200;DHT22;8207;52.494;4.654;2023-02-21T00:36:27;9.40;99.90
16200;DHT22;8207;52.494;4.654;2023-02-21T00:39:11;9.40;99.90
16200;DHT22;8207;52.494;4.654;2023-02-21T00:41:57;9.40;99.90
16200;DHT22;8207;52.494;4.654;2023-02-21T00:44:41;9.40;99.90
16200;DHT22;8207;52.494;4.654;2023-02-21T00:47:25;9.40;99.90
16200;DHT22;8207;52.494;4.654;2023-02-21T00:50:09;9.40;99.90
16200;DHT22;8207;52.494;4.654;2023-02-21T00:52:54;9.40;99.90
16200;DHT22;8207;52.494;4.654;2023-02-21T00:55:38;9.40;99.90
16200;DHT22;8207;52.494;4.654;2023-02-21T00:58:24;9.40;99.90
16200;DHT22;8207;52.494;4.654;2023-02-21T01:01:08;9.40;99.90
16200;DHT22;8207;52.494;4.654;2023-02-21T01:03:52;9.40;99.90
16200;DHT22;8207;52.494;4.654;2023-02-21T01:06:36;9.40;99.90
16200;DHT22;8207;52.494;4.654;2023-02-21T01:09:20;9.50;99.90
16200;DHT22;8207;52.494;4.654;2023-02-21T01:12:05;9.50;99.90
16200;DHT22;8207;52.494;4.654;2023-02-21T01:14:50;9.50;99.90
16200;DHT22;8207;52.494;4.654;2023-02-21T01:17:35;9.50;99.90
16200;DHT22;8207;52.494;4.654;2023-02-21T01:20:19;9.50;99.90
16200;DHT22;8207;52.494;4.654;2023-02-21T01:23:03;9.50;99.90
16200;DHT22;8207;52.494;4.654;2023-02-21T01:25:47;9.50;99.90
16200;DHT22;8207;52.494;4.654;2023-02-21T01:28:31;9.50;99.90
16200;DHT22;8207;52.494;4.654;2023-02-21T01:31:18;9.50;99.90
16200;DHT22;8207;52.494;4.654;2023-02-21T01:34:02;9.40;99.90
16200;DHT22;8207;52.494;4.654;2023-02-21T01:36:47;9.50;99.90
16200;DHT22;8207;52.494;4.654;2023-02-21T01:39:32;9.50;99.90
16200;DHT22;8207;52.494;4.654;2023-02-21T01:42:17;9.50;99.90
16200;DHT22;8207;52.494;4.654;2023-02-21T01:45:40;9.50;99.90
16200;DHT22;8207;52.494;4.654;2023-02-21T01:48:28;9.50;99.90
16200;DHT22;8207;52.494;4.654;2023-02-21T01:51:16;9.50;99.90
16200;DHT22;8207;52.494;4.654;2023-02-21T01:54:02;9.50;99.90
16200;DHT22;8207;52.494;4.654;2023-02-21T01:56:47;9.50;99.90
16200;DHT22;8207;52.494;4.654;2023-02-21T01:59:32;9.40;99.90
16200;DHT22;8207;52.494;4.654;2023-02-21T02:02:26;9.40;99.90
16200;DHT22;8207;52.494;4.654;2023-02-21T02:05:13;9.50;99.90
16200;DHT22;8207;52.494;4.654;2023-02-21T02:07:57;9.50;99.90
16200;DHT22;8207;52.494;4.654;2023-02-21T02:10:42;9.50;99.90
16200;DHT22;8207;52.494;4.654;2023-02-21T02:13:56;9.50;99.90
16200;DHT22;8207;52.494;4.654;2023-02-21T02:16:34;9.50;99.90
16200;DHT22;8207;52.494;4.654;2023-02-21T02:22:40;9.50;99.90
16200;DHT22;8207;52.494;4.654;2023-02-21T02:25:20;9.50;99.90
16200;DHT22;8207;52.494;4.654;2023-02-21T02:28:09;9.60;99.90
16200;DHT22;8207;52.494;4.654;2023-02-21T02:31:06;9.60;99.90
16200;DHT22;8207;52.494;4.654;2023-02-21T02:34:20;9.60;99.90
16200;DHT22;8207;52.494;4.654;2023-02-21T02:36:49;9.60;99.90
16200;DHT22;8207;52.494;4.654;2023-02-21T02:39:23;9.60;99.90
16200;DHT22;8207;52.494;4.654;2023-02-21T02:42:03;9.70;99.90
16200;DHT22;8207;52.494;4.654;2023-02-21T02:44:37;9.70;99.90
16200;DHT22;8207;52.494;4.654;2023-02-21T02:47:07;9.80;99.90
16200;DHT22;8207;52.494;4.654;2023-02-21T02:49:40;9.80;99.90
16200;DHT22;8207;52.494;4.654;2023-02-21T02:52:09;9.80;99.90
16200;DHT22;8207;52.494;4.654;2023-02-21T02:54:36;9.80;99.90
16200;DHT22;8207;52.494;4.654;2023-02-21T02:57:05;9.80;99.90
16200;DHT22;8207;52.494;4.654;2023-02-21T02:59:37;9.90;99.90
16200;DHT22;8207;52.494;4.654;2023-02-21T03:02:33;9.90;99.90
16200;DHT22;8207;52.494;4.654;2023-02-21T03:08:08;9.80;99.90
16200;DHT22;8207;52.494;4.654;2023-02-21T03:10:43;9.80;99.90
16200;DHT22;8207;52.494;4.654;2023-02-21T03:13:14;9.70;99.90
16200;DHT22;8207;52.494;4.654;2023-02-21T03:15:47;9.70;99.90
16200;DHT22;8207;52.494;4.654;2023-02-21T03:18:20;9.70;99.90
16200;DHT22;8207;52.494;4.654;2023-02-21T03:20:54;9.60;99.90
16200;DHT22;8207;52.494;4.654;2023-02-21T03:23:25;9.60;99.90
16200;DHT22;8207;52.494;4.654;2023-02-21T03:25:54;9.60;99.90
16200;DHT22;8207;52.494;4.654;2023-02-21T03:28:23;9.50;99.90
16200;DHT22;8207;52.494;4.654;2023-02-21T03:30:52;9.50;99.90
16200;DHT22;8207;52.494;4.654;2023-02-21T03:33:21;9.50;99.90
16200;DHT22;8207;52.494;4.654;2023-02-21T03:35:48;9.60;99.90
16200;DHT22;8207;52.494;4.654;2023-02-21T03:38:17;9.60;99.90
16200;DHT22;8207;52.494;4.654;2023-02-21T03:40:44;9.60;99.90
16200;DHT22;8207;52.494;4.654;2023-02-21T03:43:11;9.70;99.90
16200;DHT22;8207;52.494;4.654;2023-02-21T03:45:37;9.80;99.90
16200;DHT22;8207;52.494;4.654;2023-02-21T03:48:05;9.80;99.90
16200;DHT22;8207;52.494;4.654;2023-02-21T03:50:31;9.80;99.90
16200;DHT22;8207;52.494;4.654;2023-02-21T03:52:58;9.80;99.90
16200;DHT22;8207;52.494;4.654;2023-02-21T03:55:27;9.80;99.90
16200;DHT22;8207;52.494;4.654;2023-02-21T03:57:54;9.90;99.90
16200;DHT22;8207;52.494;4.654;2023-02-21T04:00:21;9.80;99.90
16200;DHT22;8207;52.494;4.654;2023-02-21T04:02:48;9.80;99.90
16200;DHT22;8207;52.494;4.654;2023-02-21T04:05:15;9.80;99.90
16200;DHT22;8207;52.494;4.654;2023-02-21T04:07:42;9.90;99.90
16200;DHT22;8207;52.494;4.654;2023-02-21T04:10:09;9.90;99.90
16200;DHT22;8207;52.494;4.654;2023-02-21T04:12:38;9.90;99.90
16200;DHT22;8207;52.494;4.654;2023-02-21T04:15:05;9.80;99.90
16200;DHT22;8207;52.494;4.654;2023-02-21T04:17:32;9.80;99.90
16200;DHT22;8207;52.494;4.654;2023-02-21T04:19:59;9.90;99.90
16200;DHT22;8207;52.494;4.654;2023-02-21T04:22:26;9.90;99.90
16200;DHT22;8207;52.494;4.654;2023-02-21T04:24:53;9.80;99.90
16200;DHT22;8207;52.494;4.654;2023-02-21T04:27:20;9.90;99.90
16200;DHT22;8207;52.494;4.654;2023-02-21T04:29:48;9.90;99.90
16200;DHT22;8207;52.494;4.654;2023-02-21T04:32:15;9.90;99.90
16200;DHT22;8207;52.494;4.654;2023-02-21T04:34:42;9.90;99.90
16200;DHT22;8207;52.494;4.654;2023-02-21T04:37:09;9.80;99.90
16200;DHT22;8207;52.494;4.654;2023-02-21T04:39:36;9.80;99.90
16200;DHT22;8207;52.494;4.654;2023-02-21T04:42:03;9.80;99.90
16200;DHT22;8207;52.494;4.654;2023-02-21T04:44:30;9.70;99.90
16200;DHT22;8207;52.494;4.654;2023-02-21T04:46:58;9.70;99.90
16200;DHT22;8207;52.494;4.654;2023-02-21T04:49:25;9.70;99.90
16200;DHT22;8207;52.494;4.654;2023-02-21T04:51:52;9.60;99.90
16200;DHT22;8207;52.494;4.654;2023-02-21T04:54:19;9.60;99.90
16200;DHT22;8207;52.494;4.654;2023-02-21T04:56:46;9.60;99.90
16200;DHT22;8207;52.494;4.654;2023-02-21T04:59:13;9.60;99.90
16200;DHT22;8207;52.494;4.654;2023-02-21T05:01:40;9.60;99.90
16200;DHT22;8207;52.494;4.654;2023-02-21T05:04:08;9.50;99.90
16200;DHT22;8207;52.494;4.654;2023-02-21T05:06:35;9.50;99.90
16200;DHT22;8207;52.494;4.654;2023-02-21T05:09:03;9.50;99.90
16200;DHT22;8207;52.494;4.654;2023-02-21T05:11:32;9.50;99.90
16200;DHT22;8207;52.494;4.654;2023-02-21T05:14:00;9.50;99.90
16200;DHT22;8207;52.494;4.654;2023-02-21T05:16:27;9.50;99.90
16200;DHT22;8207;52.494;4.654;2023-02-21T05:18:54;9.40;99.90
16200;DHT22;8207;52.494;4.654;2023-02-21T05:21:22;9.50;99.90
16200;DHT22;8207;52.494;4.654;2023-02-21T05:23:49;9.40;99.90
16200;DHT22;8207;52.494;4.654;2023-02-21T05:26:25;9.40;99.90
16200;DHT22;8207;52.494;4.654;2023-02-21T05:28:54;9.40;99.90
16200;DHT22;8207;52.494;4.654;2023-02-21T05:31:21;9.40;99.90
16200;DHT22;8207;52.494;4.654;2023-02-21T05:33:48;9.40;99.90
16200;DHT22;8207;52.494;4.654;2023-02-21T05:36:15;9.30;99.90
16200;DHT22;8207;52.494;4.654;2023-02-21T05:38:49;9.30;99.90
16200;DHT22;8207;52.494;4.654;2023-02-21T05:41:17;9.30;99.90
16200;DHT22;8207;52.494;4.654;2023-02-21T05:43:44;9.30;99.90
16200;DHT22;8207;52.494;4.654;2023-02-21T05:46:17;9.30;99.90
16200;DHT22;8207;52.494;4.654;2023-02-21T05:48:45;9.30;99.90
16200;DHT22;8207;52.494;4.654;2023-02-21T05:51:12;9.30;99.90
16200;DHT22;8207;52.494;4.654;2023-02-21T05:53:38;9.30;99.90
16200;DHT22;8207;52.494;4.654;2023-02-21T05:56:07;9.30;99.90
16200;DHT22;8207;52.494;4.654;2023-02-21T05:58:34;9.30;99.90
16200;DHT22;8207;52.494;4.654;2023-02-21T06:01:02;9.40;99.90
16200;DHT22;8207;52.494;4.654;2023-02-21T06:03:29;9.30;99.90
16200;DHT22;8207;52.494;4.654;2023-02-21T06:05:55;9.30;99.90
16200;DHT22;8207;52.494;4.654;2023-02-21T06:08:22;9.40;99.90
16200;DHT22;8207;52.494;4.654;2023-02-21T06:10:49;9.40;99.90
16200;DHT22;8207;52.494;4.654;2023-02-21T06:13:18;9.40;99.90
16200;DHT22;8207;52.494;4.654;2023-02-21T06:15:45;9.40;99.90
16200;DHT22;8207;52.494;4.654;2023-02-21T06:18:13;9.40;99.90
16200;DHT22;8207;52.494;4.654;2023-02-21T06:20:40;9.40;99.90
16200;DHT22;8207;52.494;4.654;2023-02-21T06:23:07;9.40;99.90
16200;DHT22;8207;52.494;4.654;2023-02-21T06:25:34;9.40;99.90
16200;DHT22;8207;52.494;4.654;2023-02-21T06:28:01;9.40;99.90
16200;DHT22;8207;52.494;4.654;2023-02-21T06:30:29;9.40;99.90
16200;DHT22;8207;52.494;4.654;2023-02-21T06:32:56;9.40;99.90
16200;DHT22;8207;52.494;4.654;2023-02-21T06:35:23;9.40;99.90
16200;DHT22;8207;52.494;4.654;2023-02-21T06:37:49;9.40;99.90
16200;DHT22;8207;52.494;4.654;2023-02-21T06:40:16;9.30;99.90
16200;DHT22;8207;52.494;4.654;2023-02-21T06:42:43;9.30;99.90
16200;DHT22;8207;52.494;4.654;2023-02-21T06:45:10;9.30;99.90
16200;DHT22;8207;52.494;4.654;2023-02-21T06:47:39;9.30;99.90
16200;DHT22;8207;52.494;4.654;2023-02-21T06:50:06;9.30;99.90
16200;DHT22;8207;52.494;4.654;2023-02-21T06:52:33;9.40;99.90
16200;DHT22;8207;52.494;4.654;2023-02-21T06:55:00;9.30;99.90
16200;DHT22;8207;52.494;4.654;2023-02-21T06:57:27;9.30;99.90
16200;DHT22;8207;52.494;4.654;2023-02-21T06:59:54;9.30;99.90
16200;DHT22;8207;52.494;4.654;2023-02-21T07:02:21;9.30;99.90
16200;DHT22;8207;52.494;4.654;2023-02-21T07:04:49;9.30;99.90
16200;DHT22;8207;52.494;4.654;2023-02-21T07:07:16;9.30;99.90
16200;DHT22;8207;52.494;4.654;2023-02-21T07:09:43;9.30;99.90
16200;DHT22;8207;52.494;4.654;2023-02-21T07:12:10;9.30;99.90
16200;DHT22;8207;52.494;4.654;2023-02-21T07:14:37;9.40;99.90
16200;DHT22;8207;52.494;4.654;2023-02-21T07:17:04;9.30;99.90
16200;DHT22;8207;52.494;4.654;2023-02-21T07:19:31;9.30;99.90
16200;DHT22;8207;52.494;4.654;2023-02-21T07:21:59;9.30;99.90
16200;DHT22;8207;52.494;4.654;2023-02-21T07:24:26;9.40;99.90
16200;DHT22;8207;52.494;4.654;2023-02-21T07:26:53;9.40;99.90
16200;DHT22;8207;52.494;4.654;2023-02-21T07:29:20;9.40;99.90
16200;DHT22;8207;52.494;4.654;2023-02-21T07:31:47;9.40;99.90
16200;DHT22;8207;52.494;4.654;2023-02-21T07:34:15;9.40;99.90
16200;DHT22;8207;52.494;4.654;2023-02-21T07:36:44;9.40;99.90
16200;DHT22;8207;52.494;4.654;2023-02-21T07:39:12;9.40;99.90
16200;DHT22;8207;52.494;4.654;2023-02-21T07:41:39;9.40;99.90
16200;DHT22;8207;52.494;4.654;2023-02-21T07:44:06;9.40;99.90
16200;DHT22;8207;52.494;4.654;2023-02-21T07:46:33;9.50;99.90
16200;DHT22;8207;52.494;4.654;2023-02-21T07:49:00;9.40;99.90
16200;DHT22;8207;52.494;4.654;2023-02-21T07:51:28;9.40;99.90
16200;DHT22;8207;52.494;4.654;2023-02-21T07:53:55;9.50;99.90
16200;DHT22;8207;52.494;4.654;2023-02-21T07:56:24;9.50;99.90
16200;DHT22;8207;52.494;4.654;2023-02-21T07:58:51;9.50;99.90
16200;DHT22;8207;52.494;4.654;2023-02-21T08:01:21;9.50;99.90
16200;DHT22;8207;52.494;4.654;2023-02-21T08:03:48;9.50;99.90
16200;DHT22;8207;52.494;4.654;2023-02-21T08:06:15;9.50;99.90
16200;DHT22;8207;52.494;4.654;2023-02-21T08:08:42;9.50;99.90
16200;DHT22;8207;52.494;4.654;2023-02-21T08:11:09;9.50;99.90
16200;DHT22;8207;52.494;4.654;2023-02-21T08:13:38;9.50;99.90
16200;DHT22;8207;52.494;4.654;2023-02-21T08:16:05;9.50;99.90
16200;DHT22;8207;52.494;4.654;2023-02-21T08:18:32;9.50;99.90
16200;DHT22;8207;52.494;4.654;2023-02-21T08:20:59;9.50;99.90
16200;DHT22;8207;52.494;4.654;2023-02-21T08:23:26;9.50;99.90
16200;DHT22;8207;52.494;4.654;2023-02-21T08:25:53;9.60;99.90
16200;DHT22;8207;52.494;4.654;2023-02-21T08:28:20;9.60;99.90
16200;DHT22;8207;52.494;4.654;2023-02-21T08:30:48;9.60;99.90
16200;DHT22;8207;52.494;4.654;2023-02-21T08:33:15;9.60;99.90
16200;DHT22;8207;52.494;4.654;2023-02-21T08:35:42;9.60;99.90
16200;DHT22;8207;52.494;4.654;2023-02-21T08:38:09;9.70;99.90
16200;DHT22;8207;52.494;4.654;2023-02-21T08:40:36;9.70;99.90
16200;DHT22;8207;52.494;4.654;2023-02-21T08:43:03;9.70;99.90
16200;DHT22;8207;52.494;4.654;2023-02-21T08:45:32;9.80;99.90
16200;DHT22;8207;52.494;4.654;2023-02-21T08:48:00;9.80;99.90
16200;DHT22;8207;52.494;4.654;2023-02-21T08:50:28;9.80;99.90
16200;DHT22;8207;52.494;4.654;2023-02-21T08:52:55;9.80;99.90
16200;DHT22;8207;52.494;4.654;2023-02-21T08:55:22;9.80;99.90
16200;DHT22;8207;52.494;4.654;2023-02-21T08:57:51;9.90;99.90
16200;DHT22;8207;52.494;4.654;2023-02-21T09:00:20;9.90;99.90
16200;DHT22;8207;52.494;4.654;2023-02-21T09:02:48;9.90;99.90
16200;DHT22;8207;52.494;4.654;2023-02-21T09:05:20;9.90;99.90
16200;DHT22;8207;52.494;4.654;2023-02-21T09:07:49;9.90;99.90
16200;DHT22;8207;52.494;4.654;2023-02-21T09:10:19;10.00;99.90
16200;DHT22;8207;52.494;4.654;2023-02-21T09:12:46;10.00;99.90
16200;DHT22;8207;52.494;4.654;2023-02-21T09:15:14;10.10;99.90
16200;DHT22;8207;52.494;4.654;2023-02-21T09:17:41;10.10;99.90
16200;DHT22;8207;52.494;4.654;2023-02-21T09:20:13;10.10;99.90
16200;DHT22;8207;52.494;4.654;2023-02-21T09:22:43;10.10;99.90
16200;DHT22;8207;52.494;4.654;2023-02-21T09:25:11;10.10;99.90
16200;DHT22;8207;52.494;4.654;2023-02-21T09:27:38;10.20;99.90
16200;DHT22;8207;52.494;4.654;2023-02-21T09:30:07;10.20;99.90
16200;DHT22;8207;52.494;4.654;2023-02-21T09:32:34;10.20;99.90
16200;DHT22;8207;52.494;4.654;2023-02-21T09:35:02;10.30;99.90
16200;DHT22;8207;52.494;4.654;2023-02-21T09:37:29;10.30;99.90
16200;DHT22;8207;52.494;4.654;2023-02-21T09:39:59;10.40;99.90
16200;DHT22;8207;52.494;4.654;2023-02-21T09:42:29;10.40;99.90
16200;DHT22;8207;52.494;4.654;2023-02-21T09:44:57;10.40;99.90
16200;DHT22;8207;52.494;4.654;2023-02-21T09:47:27;10.50;99.90
16200;DHT22;8207;52.494;4.654;2023-02-21T09:49:58;10.50;99.90
16200;DHT22;8207;52.494;4.654;2023-02-21T09:52:30;10.50;99.90
16200;DHT22;8207;52.494;4.654;2023-02-21T09:55:05;10.50;99.90
16200;DHT22;8207;52.494;4.654;2023-02-21T09:57:33;10.60;99.90
16200;DHT22;8207;52.494;4.654;2023-02-21T10:00:01;10.60;99.90
16200;DHT22;8207;52.494;4.654;2023-02-21T10:02:41;10.70;99.90
16200;DHT22;8207;52.494;4.654;2023-02-21T10:05:17;10.70;99.90
16200;DHT22;8207;52.494;4.654;2023-02-21T10:07:53;10.70;99.90
16200;DHT22;8207;52.494;4.654;2023-02-21T10:10:28;10.70;99.90
16200;DHT22;8207;52.494;4.654;2023-02-21T10:13:00;10.70;99.90
16200;DHT22;8207;52.494;4.654;2023-02-21T10:15:38;10.80;99.90
16200;DHT22;8207;52.494;4.654;2023-02-21T10:18:13;10.80;99.90
16200;DHT22;8207;52.494;4.654;2023-02-21T10:20:44;10.80;99.90
16200;DHT22;8207;52.494;4.654;2023-02-21T10:23:15;10.90;99.90
16200;DHT22;8207;52.494;4.654;2023-02-21T10:25:45;10.90;99.90
16200;DHT22;8207;52.494;4.654;2023-02-21T10:28:17;10.90;99.90
16200;DHT22;8207;52.494;4.654;2023-02-21T10:30:45;10.90;99.90
16200;DHT22;8207;52.494;4.654;2023-02-21T10:33:12;10.90;99.90
16200;DHT22;8207;52.494;4.654;2023-02-21T10:35:39;10.90;99.90
16200;DHT22;8207;52.494;4.654;2023-02-21T10:38:08;11.00;99.90
16200;DHT22;8207;52.494;4.654;2023-02-21T10:40:37;11.00;99.90
16200;DHT22;8207;52.494;4.654;2023-02-21T10:43:11;11.00;99.90
16200;DHT22;8207;52.494;4.654;2023-02-21T10:45:41;11.00;99.90
16200;DHT22;8207;52.494;4.654;2023-02-21T10:48:12;11.10;99.90
16200;DHT22;8207;52.494;4.654;2023-02-21T10:50:42;11.10;99.90
16200;DHT22;8207;52.494;4.654;2023-02-21T10:53:27;11.10;99.90
16200;DHT22;8207;52.494;4.654;2023-02-21T10:58:52;11.20;99.90
16200;DHT22;8207;52.494;4.654;2023-02-21T11:01:22;11.20;99.90
16200;DHT22;8207;52.494;4.654;2023-02-21T11:03:59;11.20;99.90
16200;DHT22;8207;52.494;4.654;2023-02-21T11:06:32;11.20;99.90
16200;DHT22;8207;52.494;4.654;2023-02-21T11:09:00;11.30;99.90
16200;DHT22;8207;52.494;4.654;2023-02-21T11:11:35;11.30;99.90
16200;DHT22;8207;52.494;4.654;2023-02-21T11:14:23;11.30;99.90
16200;DHT22;8207;52.494;4.654;2023-02-21T11:17:10;11.30;99.90
16200;DHT22;8207;52.494;4.654;2023-02-21T11:19:47;11.30;99.90
16200;DHT22;8207;52.494;4.654;2023-02-21T11:22:16;11.30;99.90
16200;DHT22;8207;52.494;4.654;2023-02-21T11:24:54;11.30;99.90
16200;DHT22;8207;52.494;4.654;2023-02-21T11:27:23;11.30;99.90
16200;DHT22;8207;52.494;4.654;2023-02-21T11:29:52;11.30;99.90
16200;DHT22;8207;52.494;4.654;2023-02-21T11:32:26;11.30;99.90
16200;DHT22;8207;52.494;4.654;2023-02-21T11:35:01;11.20;99.90
16200;DHT22;8207;52.494;4.654;2023-02-21T11:37:29;11.20;99.90
16200;DHT22;8207;52.494;4.654;2023-02-21T11:39:57;11.30;99.90
16200;DHT22;8207;52.494;4.654;2023-02-21T11:42:27;11.20;99.90
16200;DHT22;8207;52.494;4.654;2023-02-21T11:45:16;11.20;99.90
16200;DHT22;8207;52.494;4.654;2023-02-21T11:47:51;11.20;99.90
16200;DHT22;8207;52.494;4.654;2023-02-21T11:50:24;11.20;99.90
16200;DHT22;8207;52.494;4.654;2023-02-21T11:53:01;11.20;99.90
16200;DHT22;8207;52.494;4.654;2023-02-21T11:55:29;11.20;99.90
16200;DHT22;8207;52.494;4.654;2023-02-21T11:58:04;11.20;99.90
16200;DHT22;8207;52.494;4.654;2023-02-21T12:00:41;11.20;99.90
16200;DHT22;8207;52.494;4.654;2023-02-21T12:03:37;11.20;99.90
16200;DHT22;8207;52.494;4.654;2023-02-21T12:06:13;11.20;99.90
16200;DHT22;8207;52.494;4.654;2023-02-21T12:08:45;11.20;99.90
16200;DHT22;8207;52.494;4.654;2023-02-21T12:11:25;11.20;99.90
16200;DHT22;8207;52.494;4.654;2023-02-21T12:14:04;11.20;99.90
16200;DHT22;8207;52.494;4.654;2023-02-21T12:16:41;11.20;99.90
16200;DHT22;8207;52.494;4.654;2023-02-21T12:19:33;11.10;99.90
16200;DHT22;8207;52.494;4.654;2023-02-21T12:22:10;11.10;99.90
16200;DHT22;8207;52.494;4.654;2023-02-21T12:24:49;11.10;99.90
16200;DHT22;8207;52.494;4.654;2023-02-21T12:27:29;11.10;99.90
16200;DHT22;8207;52.494;4.654;2023-02-21T12:30:16;11.10;99.90
16200;DHT22;8207;52.494;4.654;2023-02-21T12:32:52;11.00;99.90
16200;DHT22;8207;52.494;4.654;2023-02-21T12:35:40;11.00;99.90
16200;DHT22;8207;52.494;4.654;2023-02-21T12:38:21;11.00;99.90
16200;DHT22;8207;52.494;4.654;2023-02-21T12:41:02;10.90;99.90
16200;DHT22;8207;52.494;4.654;2023-02-21T12:43:42;10.80;99.90
16200;DHT22;8207;52.494;4.654;2023-02-21T12:46:19;10.80;99.90
16200;DHT22;8207;52.494;4.654;2023-02-21T12:48:54;10.80;99.90
16200;DHT22;8207;52.494;4.654;2023-02-21T12:51:26;10.80;99.90
16200;DHT22;8207;52.494;4.654;2023-02-21T12:53:57;10.80;99.90
16200;DHT22;8207;52.494;4.654;2023-02-21T12:56:30;10.80;99.90
16200;DHT22;8207;52.494;4.654;2023-02-21T12:59:01;10.80;99.90
16200;DHT22;8207;52.494;4.654;2023-02-21T13:01:32;10.70;99.90
16200;DHT22;8207;52.494;4.654;2023-02-21T13:04:14;10.70;99.90
16200;DHT22;8207;52.494;4.654;2023-02-21T13:06:46;10.70;99.90
16200;DHT22;8207;52.494;4.654;2023-02-21T13:09:21;10.60;99.90
16200;DHT22;8207;52.494;4.654;2023-02-21T13:11:57;10.60;99.90
16200;DHT22;8207;52.494;4.654;2023-02-21T13:14:30;10.60;99.90
16200;DHT22;8207;52.494;4.654;2023-02-21T13:16:57;10.60;99.90
16200;DHT22;8207;52.494;4.654;2023-02-21T13:19:39;10.60;99.90
16200;DHT22;8207;52.494;4.654;2023-02-21T13:22:25;10.60;99.90
16200;DHT22;8207;52.494;4.654;2023-02-21T13:25:20;10.60;99.90
16200;DHT22;8207;52.494;4.654;2023-02-21T13:27:55;10.60;99.90
16200;DHT22;8207;52.494;4.654;2023-02-21T13:30:26;10.50;99.90
16200;DHT22;8207;52.494;4.654;2023-02-21T13:32:56;10.50;99.90
16200;DHT22;8207;52.494;4.654;2023-02-21T13:35:31;10.50;99.90
16200;DHT22;8207;52.494;4.654;2023-02-21T13:38:00;10.50;99.90
16200;DHT22;8207;52.494;4.654;2023-02-21T13:40:34;10.50;99.90
16200;DHT22;8207;52.494;4.654;2023-02-21T13:43:05;10.50;99.90
16200;DHT22;8207;52.494;4.654;2023-02-21T13:45:32;10.50;99.90
16200;DHT22;8207;52.494;4.654;2023-02-21T13:48:29;10.50;99.90
16200;DHT22;8207;52.494;4.654;2023-02-21T13:50:59;10.40;99.90
16200;DHT22;8207;52.494;4.654;2023-02-21T13:53:29;10.30;99.90
16200;DHT22;8207;52.494;4.654;2023-02-21T13:56:16;10.30;99.90
16200;DHT22;8207;52.494;4.654;2023-02-21T13:58:45;10.30;99.90
16200;DHT22;8207;52.494;4.654;2023-02-21T14:01:41;10.20;99.90
16200;DHT22;8207;52.494;4.654;2023-02-21T14:04:48;10.20;99.90
16200;DHT22;8207;52.494;4.654;2023-02-21T14:07:17;10.20;99.90
16200;DHT22;8207;52.494;4.654;2023-02-21T14:10:04;10.20;99.90
16200;DHT22;8207;52.494;4.654;2023-02-21T14:12:31;10.10;99.90
16200;DHT22;8207;52.494;4.654;2023-02-21T14:15:04;10.10;99.90
16200;DHT22;8207;52.494;4.654;2023-02-21T14:17:32;10.10;99.90
16200;DHT22;8207;52.494;4.654;2023-02-21T14:19:59;10.10;99.90
16200;DHT22;8207;52.494;4.654;2023-02-21T14:22:29;10.10;99.90
16200;DHT22;8207;52.494;4.654;2023-02-21T14:25:04;10.10;99.90
16200;DHT22;8207;52.494;4.654;2023-02-21T14:27:37;10.10;99.90
16200;DHT22;8207;52.494;4.654;2023-02-21T14:33:13;10.00;99.90
16200;DHT22;8207;52.494;4.654;2023-02-21T14:35:48;10.00;99.90
16200;DHT22;8207;52.494;4.654;2023-02-21T14:38:21;10.00;99.90
16200;DHT22;8207;52.494;4.654;2023-02-21T14:41:00;10.00;99.90
16200;DHT22;8207;52.494;4.654;2023-02-21T14:43:40;9.90;99.90
16200;DHT22;8207;52.494;4.654;2023-02-21T14:46:29;9.90;99.90
16200;DHT22;8207;52.494;4.654;2023-02-21T14:49:18;9.90;99.90
16200;DHT22;8207;52.494;4.654;2023-02-21T14:52:01;9.90;99.90
16200;DHT22;8207;52.494;4.654;2023-02-21T14:58:11;9.90;99.90
16200;DHT22;8207;52.494;4.654;2023-02-21T15:00:51;9.80;99.90
16200;DHT22;8207;52.494;4.654;2023-02-21T15:03:28;9.80;99.90
16200;DHT22;8207;52.494;4.654;2023-02-21T15:06:03;9.80;99.90
16200;DHT22;8207;52.494;4.654;2023-02-21T15:08:40;9.80;99.90
16200;DHT22;8207;52.494;4.654;2023-02-21T15:11:17;9.70;99.90
16200;DHT22;8207;52.494;4.654;2023-02-21T15:13:46;9.70;99.90
16200;DHT22;8207;52.494;4.654;2023-02-21T15:16:15;9.70;99.90
16200;DHT22;8207;52.494;4.654;2023-02-21T15:18:56;9.60;99.90
16200;DHT22;8207;52.494;4.654;2023-02-21T15:21:24;9.60;99.90
16200;DHT22;8207;52.494;4.654;2023-02-21T15:24:02;9.50;99.90
16200;DHT22;8207;52.494;4.654;2023-02-21T15:26:34;9.50;99.90
16200;DHT22;8207;52.494;4.654;2023-02-21T15:29:07;9.50;99.90
16200;DHT22;8207;52.494;4.654;2023-02-21T15:31:37;9.40;99.90
16200;DHT22;8207;52.494;4.654;2023-02-21T15:34:13;9.40;99.90
16200;DHT22;8207;52.494;4.654;2023-02-21T15:36:43;9.40;99.90
16200;DHT22;8207;52.494;4.654;2023-02-21T15:39:16;9.40;99.90
16200;DHT22;8207;52.494;4.654;2023-02-21T15:41:48;9.40;99.90
16200;DHT22;8207;52.494;4.654;2023-02-21T15:44:21;9.30;99.90
16200;DHT22;8207;52.494;4.654;2023-02-21T15:46:53;9.30;99.90
16200;DHT22;8207;52.494;4.654;2023-02-21T15:49:24;9.30;99.90
16200;DHT22;8207;52.494;4.654;2023-02-21T15:51:52;9.30;99.90
16200;DHT22;8207;52.494;4.654;2023-02-21T15:54:27;9.30;99.90
16200;DHT22;8207;52.494;4.654;2023-02-21T15:57:04;9.30;99.90
16200;DHT22;8207;52.494;4.654;2023-02-21T15:59:33;9.20;99.90
16200;DHT22;8207;52.494;4.654;2023-02-21T16:02:13;9.20;99.90
16200;DHT22;8207;52.494;4.654;2023-02-21T16:04:41;9.20;99.90
16200;DHT22;8207;52.494;4.654;2023-02-21T16:07:16;9.10;99.90
16200;DHT22;8207;52.494;4.654;2023-02-21T16:09:45;9.10;99.90
16200;DHT22;8207;52.494;4.654;2023-02-21T16:12:28;9.10;99.90
16200;DHT22;8207;52.494;4.654;2023-02-21T16:15:00;9.10;99.90
16200;DHT22;8207;52.494;4.654;2023-02-21T16:17:30;9.10;99.90
16200;DHT22;8207;52.494;4.654;2023-02-21T16:20:00;9.10;99.90
16200;DHT22;8207;52.494;4.654;2023-02-21T16:22:32;9.10;99.90
16200;DHT22;8207;52.494;4.654;2023-02-21T16:25:21;9.10;99.90
16200;DHT22;8207;52.494;4.654;2023-02-21T16:27:50;9.10;99.90
16200;DHT22;8207;52.494;4.654;2023-02-21T16:30:21;9.00;99.90
16200;DHT22;8207;52.494;4.654;2023-02-21T16:32:50;9.00;99.90
16200;DHT22;8207;52.494;4.654;2023-02-21T16:35:19;9.00;99.90
16200;DHT22;8207;52.494;4.654;2023-02-21T16:37:48;9.00;99.90
16200;DHT22;8207;52.494;4.654;2023-02-21T16:40:18;9.00;99.90
16200;DHT22;8207;52.494;4.654;2023-02-21T16:42:48;9.00;99.90
16200;DHT22;8207;52.494;4.654;2023-02-21T16:45:15;9.00;99.90
16200;DHT22;8207;52.494;4.654;2023-02-21T16:47:43;9.00;99.90
16200;DHT22;8207;52.494;4.654;2023-02-21T16:50:17;9.00;99.90
16200;DHT22;8207;52.494;4.654;2023-02-21T16:52:44;9.00;99.90